createdAt,value
2017-11-18T00:01:53.202Z,69.43
2017-11-18T00:04:22.261Z,57.17
2017-11-18T00:06:55.184Z,66.60
2017-11-18T00:09:24.223Z,57.20
2017-11-18T00:11:53.287Z,54.93
2017-11-18T00:14:22.320Z,74.72
2017-11-18T00:16:52.288Z,63.33
2017-11-18T00:19:21.400Z,67.85
2017-11-18T00:21:50.456Z,66.57
2017-11-18T00:24:19.499Z,70.85
2017-11-18T00:26:48.544Z,59.43
2017-11-18T00:29:17.601Z,62.70
2017-11-18T00:31:46.644Z,72.30
2017-11-18T00:34:15.695Z,60.20
2017-11-18T00:36:44.740Z,70.72
2017-11-18T00:39:13.783Z,59.17
2017-11-18T00:41:42.824Z,58.87
2017-11-18T00:44:16.991Z,64.90
2017-11-18T00:49:21.277Z,68.35
2017-11-18T00:51:52.280Z,82.22
2017-11-18T00:54:21.340Z,71.93
2017-11-18T00:56:56.061Z,72.97
2017-11-18T00:59:25.509Z,51.97
2017-11-18T01:01:54.540Z,68.12
2017-11-18T01:04:23.593Z,69.90
2017-11-18T01:06:52.628Z,65.63
2017-11-18T01:09:21.684Z,73.15
2017-11-18T01:11:50.732Z,60.53
2017-11-18T01:14:19.767Z,69.57
2017-11-18T01:16:48.819Z,61.20
2017-11-18T01:19:17.894Z,70.80
2017-11-18T01:21:50.217Z,56.70
2017-11-18T01:24:19.233Z,67.97
2017-11-18T01:26:48.280Z,53.27
2017-11-18T01:29:17.334Z,63.33
2017-11-18T01:31:46.381Z,49.30
2017-11-18T01:34:19.051Z,64.57
2017-11-18T01:36:48.093Z,54.80
2017-11-18T01:39:17.159Z,67.50
2017-11-18T01:41:46.199Z,68.63
2017-11-18T01:44:18.347Z,82.43
2017-11-18T01:46:47.429Z,67.57
2017-11-18T01:49:18.364Z,82.22
2017-11-18T01:51:47.408Z,65.70
2017-11-18T01:54:16.448Z,84.22
2017-11-18T01:56:45.496Z,60.87
2017-11-18T01:59:14.543Z,76.72
2017-11-18T02:04:18.816Z,65.87
2017-11-18T02:06:47.867Z,77.80
2017-11-18T02:09:16.942Z,75.00
2017-11-18T02:11:45.977Z,66.10
2017-11-18T02:14:15.027Z,48.20
2017-11-18T02:16:46.083Z,46.67
2017-11-18T02:19:15.172Z,74.15
2017-11-18T02:21:53.559Z,58.10
2017-11-18T02:24:28.021Z,85.40
2017-11-18T02:26:57.068Z,86.55
2017-11-18T02:29:26.142Z,54.23
2017-11-18T02:31:55.182Z,90.12
2017-11-18T02:34:24.232Z,84.35
2017-11-18T02:36:53.284Z,67.30
2017-11-18T02:39:22.320Z,86.30
2017-11-18T02:41:51.462Z,62.63
2017-11-18T02:44:20.540Z,87.50
2017-11-18T02:46:49.632Z,74.90
2017-11-18T02:49:18.704Z,76.05
2017-11-18T02:51:48.767Z,78.07
2017-11-18T02:54:17.881Z,58.30
2017-11-18T02:59:28.101Z,72.00
2017-11-18T03:02:06.145Z,78.12
2017-11-18T03:04:38.977Z,64.10
2017-11-18T03:07:11.812Z,76.45
2017-11-18T03:09:40.899Z,70.53
2017-11-18T03:12:09.912Z,82.00
2017-11-18T03:14:38.952Z,91.70
2017-11-18T03:17:07.989Z,76.60
2017-11-18T03:19:37.023Z,85.70
2017-11-18T03:22:09.700Z,70.87
2017-11-18T03:24:43.719Z,90.30
2017-11-18T03:27:12.746Z,85.63
2017-11-18T03:29:42.824Z,75.27
2017-11-18T03:32:11.861Z,92.85
2017-11-18T03:34:41.948Z,76.93
2017-11-18T03:37:11.003Z,93.70
2017-11-18T03:39:40.051Z,76.73
2017-11-18T03:44:46.269Z,82.47
2017-11-18T03:47:15.331Z,87.25
2017-11-18T03:49:45.344Z,70.57
2017-11-18T03:52:14.394Z,61.10
2017-11-18T03:54:44.356Z,61.63
2017-11-18T03:57:13.396Z,93.30
2017-11-18T03:59:46.264Z,68.57
2017-11-18T04:02:15.391Z,90.25
2017-11-18T04:04:44.441Z,67.50
2017-11-18T04:07:13.493Z,92.97
2017-11-18T04:09:47.355Z,94.85
2017-11-18T04:12:16.537Z,65.37
2017-11-18T04:14:45.568Z,82.90
2017-11-18T04:17:14.608Z,62.53
2017-11-18T04:19:44.623Z,79.78
2017-11-18T04:22:13.664Z,67.23
2017-11-18T04:27:24.007Z,75.68
2017-11-18T04:29:54.166Z,59.23
2017-11-18T04:32:23.249Z,72.65
2017-11-18T04:34:52.284Z,56.63
2017-11-18T04:37:21.327Z,66.87
2017-11-18T04:39:54.043Z,64.28
2017-11-18T04:42:23.115Z,69.12
2017-11-18T04:44:54.097Z,64.60
2017-11-18T04:47:23.152Z,53.67
2017-11-18T04:49:52.191Z,51.10
2017-11-18T04:52:25.076Z,66.87
2017-11-18T04:54:54.105Z,62.37
2017-11-18T04:57:23.147Z,63.20
2017-11-18T04:59:52.190Z,53.50
2017-11-18T05:02:21.238Z,65.30
2017-11-18T05:04:51.295Z,57.07
2017-11-18T05:07:20.331Z,60.85
2017-11-18T05:09:49.398Z,53.20
2017-11-18T05:12:18.453Z,67.05
2017-11-18T05:14:48.412Z,67.73
2017-11-18T05:17:17.461Z,68.90
2017-11-18T05:19:47.548Z,60.23
2017-11-18T05:22:20.603Z,80.87
2017-11-18T05:24:49.629Z,63.07
2017-11-18T05:27:18.668Z,84.30
2017-11-18T05:29:47.712Z,63.17
2017-11-18T05:32:16.772Z,88.40
2017-11-18T05:34:45.835Z,85.67
2017-11-18T05:37:14.860Z,104.65
2017-11-18T05:39:43.913Z,94.77
2017-11-18T05:44:48.199Z,122.07
2017-11-18T05:47:17.243Z,101.83
2017-11-18T05:49:47.311Z,95.60
2017-11-18T05:52:16.367Z,133.07
2017-11-18T05:54:47.412Z,117.80
2017-11-18T05:57:16.459Z,112.10
2017-11-18T05:59:46.423Z,105.57
2017-11-18T06:02:15.481Z,174.20
2017-11-18T06:04:44.569Z,100.10
2017-11-18T06:07:13.639Z,160.12
2017-11-18T06:09:42.683Z,204.02
2017-11-18T06:12:11.730Z,129.20
2017-11-18T06:14:40.772Z,110.47
2017-11-18T06:17:09.832Z,146.65
2017-11-18T06:19:38.893Z,119.70
2017-11-18T06:22:07.933Z,214.63
2017-11-18T06:24:37.025Z,229.57
2017-11-18T06:27:07.037Z,141.77
2017-11-18T06:29:36.098Z,97.67
2017-11-18T06:32:05.141Z,94.87
2017-11-18T06:37:09.401Z,214.38
2017-11-18T06:39:39.416Z,118.57
2017-11-18T06:42:09.526Z,107.53
2017-11-18T06:44:38.574Z,150.87
2017-11-18T06:47:07.628Z,105.70
2017-11-18T06:52:11.897Z,154.25
2017-11-18T06:54:40.949Z,99.30
2017-11-18T06:57:10.025Z,76.63
2017-11-18T06:59:42.569Z,125.65
2017-11-18T07:02:12.527Z,101.93
2017-11-18T07:07:17.800Z,113.93
2017-11-18T07:12:22.095Z,96.47
2017-11-18T07:17:30.543Z,75.82
2017-11-18T07:19:59.579Z,76.23
2017-11-18T07:22:28.658Z,70.82
2017-11-18T07:24:57.706Z,55.63
2017-11-18T07:27:26.761Z,59.40
2017-11-18T07:29:55.796Z,53.43
2017-11-18T07:32:24.852Z,59.42
2017-11-18T07:37:29.131Z,43.60
2017-11-18T07:39:58.205Z,39.17
2017-11-18T07:42:27.246Z,28.50
2017-11-18T07:45:08.822Z,32.37
2017-11-18T07:47:52.579Z,39.78
2017-11-18T07:50:21.675Z,30.10
2017-11-18T07:52:56.359Z,34.15
2017-11-18T07:55:25.404Z,29.50
2017-11-18T07:57:54.747Z,34.30
2017-11-18T08:00:23.794Z,35.40
2017-11-18T08:02:52.835Z,23.73
2017-11-18T08:07:57.148Z,27.23
2017-11-18T08:10:27.093Z,31.30
2017-11-18T08:12:56.154Z,27.30
2017-11-18T08:15:25.196Z,36.08
2017-11-18T08:17:54.260Z,25.17
2017-11-18T08:20:23.285Z,23.53
2017-11-18T08:22:52.337Z,30.90
2017-11-18T08:25:21.394Z,21.87
2017-11-18T08:27:50.436Z,21.77
2017-11-18T08:30:19.701Z,24.20
2017-11-18T08:32:48.747Z,24.80
2017-11-18T08:35:17.810Z,19.07
2017-11-18T08:37:50.084Z,22.83
2017-11-18T08:40:19.473Z,20.07
2017-11-18T08:42:49.166Z,20.40
2017-11-18T08:45:18.216Z,23.03
2017-11-18T08:47:47.253Z,21.90
2017-11-18T08:50:16.293Z,19.23
2017-11-18T08:52:45.340Z,22.33
2017-11-18T08:55:14.399Z,19.20
2017-11-18T08:57:43.915Z,20.10
2017-11-18T09:00:13.073Z,18.80
2017-11-18T09:02:43.317Z,20.97
2017-11-18T09:05:12.434Z,19.60
2017-11-18T09:07:41.498Z,16.10
2017-11-18T09:10:11.499Z,19.60
2017-11-18T09:12:41.888Z,17.80
2017-11-18T09:15:12.038Z,19.23
2017-11-18T09:17:43.547Z,17.43
2017-11-18T09:20:17.114Z,19.67
2017-11-18T09:22:49.752Z,21.30
2017-11-18T09:25:18.817Z,16.47
2017-11-18T09:27:48.054Z,18.50
2017-11-18T09:30:19.084Z,17.60
2017-11-18T09:32:48.131Z,19.47
2017-11-18T09:35:17.502Z,25.05
2017-11-18T09:37:46.563Z,19.37
2017-11-18T09:40:15.659Z,19.17
2017-11-18T09:42:46.437Z,19.80
2017-11-18T09:45:15.548Z,23.93
2017-11-18T09:47:44.860Z,23.40
2017-11-18T09:50:18.686Z,20.50
2017-11-18T09:52:48.770Z,21.37
2017-11-18T09:55:17.881Z,23.17
2017-11-18T09:57:46.914Z,20.97
2017-11-18T10:00:15.965Z,17.07
2017-11-18T10:02:47.008Z,23.00
2017-11-18T10:05:16.140Z,18.40
2017-11-18T10:12:56.333Z,21.95
2017-11-18T10:15:25.409Z,21.90
2017-11-18T10:17:54.444Z,21.10
2017-11-18T10:20:25.436Z,16.90
2017-11-18T10:22:54.480Z,18.90
2017-11-18T10:25:25.490Z,20.90
2017-11-18T10:27:54.547Z,19.50
2017-11-18T10:32:58.861Z,24.08
2017-11-18T10:35:27.909Z,20.10
2017-11-18T10:37:56.953Z,24.27
2017-11-18T10:45:38.528Z,19.75
2017-11-18T10:48:07.574Z,19.90
2017-11-18T10:53:11.818Z,16.70
2017-11-18T10:55:40.876Z,18.67
2017-11-18T10:58:09.943Z,15.90
2017-11-18T11:00:38.976Z,14.50
2017-11-18T11:03:08.012Z,15.80
2017-11-18T11:05:37.073Z,13.63
2017-11-18T11:08:06.114Z,14.10
2017-11-18T11:10:35.161Z,17.10
2017-11-18T11:13:05.208Z,15.00
2017-11-18T11:15:34.234Z,14.83
2017-11-18T11:18:07.386Z,15.50
2017-11-18T11:20:36.432Z,16.20
2017-11-18T11:23:06.501Z,17.10
2017-11-18T11:25:38.849Z,17.23
2017-11-18T11:28:12.567Z,13.83
2017-11-18T11:30:42.160Z,14.53
2017-11-18T11:33:15.267Z,15.63
2017-11-18T11:38:20.567Z,15.20
2017-11-18T11:40:53.598Z,13.97
2017-11-18T11:43:22.649Z,13.57
2017-11-18T11:45:54.995Z,14.87
2017-11-18T11:48:24.043Z,15.70
2017-11-18T11:50:54.994Z,11.90
2017-11-18T11:53:24.017Z,13.20
2017-11-18T11:58:30.278Z,14.40
2017-11-18T12:00:59.324Z,14.90
2017-11-18T12:03:29.689Z,13.27
2017-11-18T12:06:00.219Z,12.63
2017-11-18T12:08:29.277Z,14.37
2017-11-18T12:10:58.314Z,11.13
2017-11-18T12:13:27.757Z,14.00
2017-11-18T12:15:56.848Z,11.47
2017-11-18T12:18:25.867Z,13.40
2017-11-18T12:21:13.057Z,14.20
2017-11-18T12:23:43.059Z,11.90
2017-11-18T12:26:12.104Z,11.55
2017-11-18T12:28:41.147Z,12.30
2017-11-18T12:33:45.463Z,13.82
2017-11-18T12:36:36.335Z,14.53
2017-11-18T12:39:05.385Z,12.83
2017-11-18T12:41:34.438Z,14.70
2017-11-18T12:44:03.484Z,13.03
2017-11-18T12:46:32.655Z,17.07
2017-11-18T12:49:01.689Z,13.03
2017-11-18T12:51:35.555Z,12.93
2017-11-18T12:54:08.436Z,13.63
2017-11-18T12:56:45.255Z,15.43
2017-11-18T12:59:22.078Z,11.70
2017-11-18T13:01:52.185Z,16.30
2017-11-18T13:09:39.628Z,18.02
2017-11-18T13:16:05.421Z,18.10
2017-11-18T13:18:34.531Z,17.00
2017-11-18T13:21:03.583Z,18.30
2017-11-18T13:23:32.628Z,16.67
2017-11-18T13:26:22.533Z,17.63
2017-11-18T13:28:51.566Z,16.93
2017-11-18T13:33:55.876Z,18.75
2017-11-18T13:36:24.912Z,18.77
2017-11-18T13:41:29.265Z,18.70
2017-11-18T13:43:58.293Z,17.17
2017-11-18T13:46:27.386Z,14.20
2017-11-18T13:48:57.302Z,15.20
2017-11-18T13:51:30.909Z,15.30
2017-11-18T13:54:03.703Z,15.27
2017-11-18T13:56:33.660Z,15.82
2017-11-18T13:59:03.770Z,15.00
2017-11-18T14:01:32.816Z,13.57
2017-11-18T14:04:01.844Z,15.77
2017-11-18T14:06:30.894Z,13.57
2017-11-18T14:08:59.933Z,14.85
2017-11-18T14:11:28.979Z,12.23
2017-11-18T14:13:58.969Z,13.20
2017-11-18T14:16:28.027Z,12.47
2017-11-18T14:21:32.348Z,15.55
2017-11-18T14:26:36.615Z,14.32
2017-11-18T14:29:05.692Z,15.68
2017-11-18T14:34:10.005Z,16.73
2017-11-18T14:36:39.090Z,14.17
2017-11-18T14:39:08.152Z,14.80
2017-11-18T14:41:46.179Z,15.03
2017-11-18T14:44:18.561Z,14.48
2017-11-18T14:46:48.498Z,11.00
2017-11-18T14:49:17.600Z,17.90
2017-11-18T14:51:48.561Z,16.57
2017-11-18T14:54:39.998Z,15.10
2017-11-18T14:57:09.080Z,15.77
2017-11-18T14:59:38.124Z,15.53
2017-11-18T15:02:07.333Z,18.17
2017-11-18T15:04:41.016Z,17.97
2017-11-18T15:15:08.082Z,14.20
2017-11-18T15:17:42.649Z,13.13
2017-11-18T15:20:21.011Z,10.70
2017-11-18T15:22:55.584Z,12.17
2017-11-18T15:25:32.077Z,10.20
2017-11-18T15:28:04.832Z,8.67
2017-11-18T15:30:40.380Z,11.03
2017-11-18T15:33:18.418Z,10.43
2017-11-18T15:35:53.280Z,9.40
2017-11-18T15:40:57.485Z,12.43
2017-11-18T15:43:39.537Z,11.60
2017-11-18T15:48:49.896Z,22.08
2017-11-18T15:51:20.367Z,10.20
2017-11-18T15:53:56.804Z,13.15
2017-11-18T15:59:01.635Z,11.02
2017-11-18T16:04:35.775Z,11.65
2017-11-18T16:07:05.076Z,11.80
2017-11-18T16:12:12.781Z,10.85
2017-11-18T16:14:41.813Z,11.82
2017-11-18T16:19:33.562Z,10.23
2017-11-18T16:22:02.609Z,9.20
2017-11-18T16:24:31.724Z,8.90
2017-11-18T16:27:00.754Z,8.63
2017-11-18T16:29:29.809Z,11.88
2017-11-18T16:31:58.856Z,9.70
2017-11-18T16:37:03.128Z,14.93
2017-11-18T16:39:33.097Z,11.30
2017-11-18T16:42:02.172Z,28.00
2017-11-18T16:44:40.289Z,18.80
2017-11-18T16:47:11.239Z,14.70
2017-11-18T16:49:40.397Z,24.67
2017-11-18T16:52:10.704Z,23.60
2017-11-18T16:57:20.039Z,15.70
2017-11-18T16:59:50.869Z,11.83
2017-11-18T17:02:21.932Z,14.40
2017-11-18T17:04:50.990Z,14.17
2017-11-18T17:07:20.020Z,10.00
2017-11-18T17:09:49.077Z,12.23
2017-11-18T17:12:20.199Z,10.87
2017-11-18T17:14:49.238Z,16.03
2017-11-18T17:17:18.306Z,13.80
2017-11-18T17:19:48.245Z,14.75
2017-11-18T17:22:17.321Z,14.90
2017-11-18T17:24:49.308Z,12.10
2017-11-18T17:29:53.546Z,15.00
2017-11-18T17:32:22.602Z,14.85
2017-11-18T17:34:51.646Z,14.27
2017-11-18T17:39:55.879Z,14.85
2017-11-18T17:42:24.987Z,14.90
2017-11-18T17:44:54.050Z,16.50
2017-11-18T17:47:24.086Z,13.67
2017-11-18T17:49:53.125Z,14.73
2017-11-18T17:52:22.171Z,13.17
2017-11-18T17:54:51.221Z,16.00
2017-11-18T17:57:20.255Z,15.00
2017-11-18T17:59:49.292Z,14.77
2017-11-18T18:02:18.373Z,14.13
2017-11-18T18:04:48.342Z,15.60
2017-11-18T18:09:52.646Z,16.33
2017-11-18T18:12:23.717Z,14.30
2017-11-18T18:14:52.780Z,12.93
2017-11-18T18:17:25.138Z,15.77
2017-11-18T18:19:54.175Z,12.20
2017-11-18T18:22:24.231Z,13.10
2017-11-18T18:24:53.284Z,15.13
2017-11-18T18:27:23.263Z,11.27
2017-11-18T18:29:52.337Z,10.40
2017-11-18T18:34:57.143Z,11.30
2017-11-18T18:37:29.689Z,12.23
2017-11-18T18:39:59.742Z,9.70
2017-11-18T18:42:28.781Z,9.80
2017-11-18T18:44:57.858Z,9.67
2017-11-18T18:47:28.797Z,9.80
2017-11-18T18:49:57.868Z,8.50
2017-11-18T18:52:27.083Z,9.40
2017-11-18T18:54:56.152Z,10.27
2017-11-18T18:57:26.338Z,12.40
2017-11-18T18:59:55.425Z,20.40
2017-11-18T19:02:26.468Z,17.83
2017-11-18T19:04:56.581Z,11.20
2017-11-18T19:07:26.710Z,18.80
2017-11-18T19:09:55.815Z,26.87
2017-11-18T19:12:33.388Z,17.30
2017-11-18T19:15:03.364Z,17.70
2017-11-18T19:17:33.210Z,21.37
2017-11-18T19:20:02.370Z,26.37
2017-11-18T19:22:31.574Z,28.42
2017-11-18T19:25:05.642Z,31.87
2017-11-18T19:30:11.579Z,35.63
2017-11-18T19:32:45.294Z,31.75
2017-11-18T19:35:17.625Z,59.47
2017-11-18T19:37:46.999Z,10.23
2017-11-18T19:40:16.124Z,13.07
2017-11-18T19:42:45.724Z,11.00
2017-11-18T19:45:15.169Z,9.40
2017-11-18T19:47:46.214Z,13.35
2017-11-18T19:52:54.169Z,14.40
2017-11-18T19:55:25.391Z,12.50
2017-11-18T19:57:55.100Z,14.68
2017-11-18T20:00:28.392Z,15.07
2017-11-18T20:02:57.554Z,11.73
2017-11-18T20:05:28.559Z,13.33
2017-11-18T20:08:02.340Z,13.40
2017-11-18T20:13:06.872Z,17.73
2017-11-18T20:15:38.290Z,16.90
2017-11-18T20:18:09.755Z,16.10
2017-11-18T20:20:46.061Z,19.08
2017-11-18T20:23:21.267Z,18.37
2017-11-18T20:25:52.548Z,18.00
2017-11-18T20:28:34.650Z,19.20
2017-11-18T20:31:05.894Z,16.57
2017-11-18T20:33:36.529Z,22.00
2017-11-18T20:36:07.938Z,18.50
2017-11-18T20:38:38.830Z,17.62
2017-11-18T20:41:09.047Z,16.43
2017-11-18T20:43:41.441Z,17.30
2017-11-18T20:48:48.960Z,18.08
2017-11-18T20:51:18.126Z,17.37
2017-11-18T20:53:47.222Z,17.00
2017-11-18T20:56:16.296Z,18.10
2017-11-18T20:58:45.903Z,13.87
2017-11-18T21:01:14.979Z,17.05
2017-11-18T21:03:44.141Z,15.03
2017-11-18T21:06:13.327Z,17.45
2017-11-18T21:08:42.378Z,16.50
2017-11-18T21:11:18.781Z,16.20
2017-11-18T21:13:47.819Z,14.40
2017-11-18T21:16:20.906Z,15.90
2017-11-18T21:18:49.963Z,14.60
2017-11-18T21:21:20.032Z,12.60
2017-11-18T21:23:49.095Z,15.00
2017-11-18T21:26:18.227Z,12.30
2017-11-18T21:28:47.260Z,14.50
2017-11-18T21:31:16.610Z,14.70
2017-11-18T21:33:45.678Z,14.73
2017-11-18T21:36:15.315Z,14.80
2017-11-18T21:41:19.636Z,14.20
2017-11-18T21:43:49.612Z,13.00
2017-11-18T21:46:18.694Z,13.00
2017-11-18T21:48:47.740Z,13.77
2017-11-18T21:51:16.916Z,14.80
2017-11-18T21:53:53.886Z,14.90
2017-11-18T21:56:23.264Z,13.00
2017-11-18T21:58:52.306Z,13.47
2017-11-18T22:01:21.678Z,14.52
2017-11-18T22:06:27.415Z,14.20
2017-11-18T22:08:58.380Z,13.90
2017-11-18T22:11:27.425Z,13.67
2017-11-18T22:16:31.696Z,13.80
2017-11-18T22:21:39.942Z,13.60
2017-11-18T22:24:10.912Z,12.95
2017-11-18T22:26:41.954Z,11.90
2017-11-18T22:29:11.001Z,12.40
2017-11-18T22:34:16.182Z,11.32
2017-11-18T22:36:46.127Z,11.80
2017-11-18T22:39:15.154Z,11.03
2017-11-18T22:41:44.223Z,11.02
2017-11-18T22:44:13.264Z,9.83
2017-11-18T22:46:42.327Z,9.77
2017-11-18T22:49:11.333Z,10.32
2017-11-18T22:51:40.388Z,12.85
2017-11-18T22:54:12.915Z,12.33
2017-11-18T22:56:41.963Z,10.65
2017-11-18T22:59:11.035Z,11.93
2017-11-18T23:01:40.166Z,10.70
2017-11-18T23:04:09.192Z,10.03
2017-11-18T23:06:38.243Z,11.52
2017-11-18T23:09:08.212Z,11.63
2017-11-18T23:11:37.304Z,10.57
2017-11-18T23:14:06.350Z,12.30
2017-11-18T23:16:44.470Z,10.77
2017-11-18T23:19:13.511Z,11.73
2017-11-18T23:24:17.912Z,11.07
2017-11-18T23:26:47.895Z,13.60
2017-11-18T23:29:16.931Z,10.80
2017-11-18T23:34:29.251Z,11.52
2017-11-18T23:36:59.249Z,12.43
2017-11-18T23:39:29.235Z,10.13
2017-11-18T23:42:02.920Z,12.15
2017-11-18T23:44:32.006Z,9.47
2017-11-18T23:47:01.170Z,10.80
2017-11-18T23:49:30.256Z,13.77
2017-11-18T23:52:00.442Z,11.55
2017-11-18T23:54:29.597Z,12.50
